createdAt,value
2023-04-26T00:00:35.448Z,11.33
2023-04-26T00:03:03.868Z,8.83
2023-04-26T00:05:31.233Z,9.50
2023-04-26T00:07:58.312Z,9.00
2023-04-26T00:10:25.083Z,9.47
2023-04-26T00:12:52.301Z,10.50
2023-04-26T00:15:19.083Z,9.07
2023-04-26T00:17:45.824Z,8.90
2023-04-26T00:20:13.542Z,9.93
2023-04-26T00:22:40.833Z,9.43
2023-04-26T00:25:08.187Z,8.20
2023-04-26T00:27:35.082Z,10.37
2023-04-26T00:30:01.858Z,10.57
2023-04-26T00:32:28.761Z,10.40
2023-04-26T00:34:55.790Z,10.00
2023-04-26T00:37:23.349Z,10.43
2023-04-26T00:39:50.341Z,8.97
2023-04-26T00:42:17.189Z,10.07
2023-04-26T00:44:43.964Z,9.63
2023-04-26T00:47:10.744Z,9.73
2023-04-26T00:49:37.493Z,9.97
2023-04-26T00:52:04.463Z,9.47
2023-04-26T00:54:31.272Z,9.13
2023-04-26T00:56:58.053Z,9.43
2023-04-26T00:59:26.336Z,10.00
2023-04-26T01:01:53.290Z,9.57
2023-04-26T01:04:20.354Z,9.30
2023-04-26T01:06:47.776Z,10.13
2023-04-26T01:09:15.873Z,9.50
2023-04-26T01:11:44.433Z,11.40
2023-04-26T01:14:11.453Z,7.50
2023-04-26T01:16:39.588Z,8.80
2023-04-26T01:19:12.523Z,9.03
2023-04-26T01:21:42.756Z,8.77
2023-04-26T01:24:13.769Z,8.40
2023-04-26T01:26:45.733Z,9.83
2023-04-26T01:29:20.699Z,9.53
2023-04-26T01:31:48.793Z,13.07
2023-04-26T01:34:15.953Z,9.63
2023-04-26T01:36:42.799Z,8.90
2023-04-26T01:39:10.304Z,8.83
2023-04-26T01:41:37.109Z,8.73
2023-04-26T01:44:04.326Z,9.37
2023-04-26T01:46:31.199Z,9.53
2023-04-26T01:48:58.008Z,9.67
2023-04-26T01:51:24.790Z,10.20
2023-04-26T01:53:51.588Z,9.87
2023-04-26T01:56:19.177Z,9.20
2023-04-26T01:58:46.132Z,10.70
2023-04-26T02:01:12.930Z,10.07
2023-04-26T02:03:39.794Z,9.87
2023-04-26T02:06:06.659Z,10.40
2023-04-26T02:08:33.923Z,11.30
2023-04-26T02:11:00.775Z,9.67
2023-04-26T02:13:27.569Z,11.40
2023-04-26T02:15:54.424Z,10.63
2023-04-26T02:18:22.589Z,9.73
2023-04-26T02:20:49.475Z,10.27
2023-04-26T02:23:16.793Z,9.70
2023-04-26T02:25:47.544Z,10.73
2023-04-26T02:28:16.169Z,9.43
2023-04-26T02:30:43.293Z,8.33
2023-04-26T02:33:10.121Z,11.80
2023-04-26T02:35:37.459Z,9.60
2023-04-26T02:38:04.682Z,9.23
2023-04-26T02:40:31.794Z,11.10
2023-04-26T02:42:59.199Z,11.00
2023-04-26T02:45:25.989Z,9.90
2023-04-26T02:47:52.876Z,10.63
2023-04-26T02:50:19.846Z,12.57
2023-04-26T02:52:46.567Z,10.70
2023-04-26T02:55:13.386Z,10.27
2023-04-26T02:57:40.245Z,11.17
2023-04-26T03:00:08.193Z,14.47
2023-04-26T03:02:35.264Z,10.60
2023-04-26T03:05:02.539Z,9.57
2023-04-26T03:07:29.332Z,10.53
2023-04-26T03:09:56.088Z,9.80
2023-04-26T03:12:22.815Z,10.47
2023-04-26T03:14:49.578Z,10.63
2023-04-26T03:17:16.453Z,11.73
2023-04-26T03:19:43.206Z,10.87
2023-04-26T03:22:11.422Z,9.93
2023-04-26T03:24:38.170Z,10.30
2023-04-26T03:27:04.940Z,10.80
2023-04-26T03:29:31.636Z,10.30
2023-04-26T03:31:58.409Z,11.07
2023-04-26T03:34:25.272Z,10.40
2023-04-26T03:36:52.074Z,9.50
2023-04-26T03:39:18.911Z,11.03
2023-04-26T03:41:46.159Z,11.73
2023-04-26T03:44:13.014Z,11.70
2023-04-26T03:46:39.818Z,10.40
2023-04-26T03:49:06.601Z,11.73
2023-04-26T03:51:33.557Z,9.87
2023-04-26T03:54:00.367Z,10.60
2023-04-26T03:56:27.150Z,10.57
2023-04-26T03:58:54.122Z,11.30
2023-04-26T04:01:21.069Z,10.80
2023-04-26T04:03:48.091Z,9.70
2023-04-26T04:06:15.865Z,11.10
2023-04-26T04:08:42.538Z,10.47
2023-04-26T04:11:09.294Z,11.30
2023-04-26T04:13:36.180Z,12.10
2023-04-26T04:16:02.946Z,11.33
2023-04-26T04:18:29.796Z,12.53
2023-04-26T04:20:56.566Z,11.50
2023-04-26T04:23:23.332Z,11.90
2023-04-26T04:25:51.587Z,12.53
2023-04-26T04:28:18.309Z,11.87
2023-04-26T04:30:47.373Z,13.20
2023-04-26T04:33:14.149Z,13.10
2023-04-26T04:35:44.874Z,14.77
2023-04-26T04:38:11.624Z,12.10
2023-04-26T04:40:38.302Z,11.53
2023-04-26T04:43:05.026Z,11.97
2023-04-26T04:45:31.770Z,14.90
2023-04-26T04:47:58.519Z,12.73
2023-04-26T04:50:25.379Z,12.70
2023-04-26T04:52:52.116Z,12.07
2023-04-26T04:55:18.902Z,12.30
2023-04-26T04:57:45.599Z,14.17
2023-04-26T05:00:13.014Z,13.63
2023-04-26T05:02:40.036Z,14.20
2023-04-26T05:05:07.569Z,15.10
2023-04-26T05:07:35.112Z,16.27
2023-04-26T05:10:02.131Z,17.50
2023-04-26T05:12:28.890Z,15.47
2023-04-26T05:14:55.701Z,17.20
2023-04-26T05:17:22.552Z,14.73
2023-04-26T05:19:49.326Z,15.27
2023-04-26T05:22:18.612Z,17.43
2023-04-26T05:24:47.096Z,16.57
2023-04-26T05:27:14.604Z,17.40
2023-04-26T05:29:41.798Z,17.37
2023-04-26T05:32:08.972Z,17.60
2023-04-26T05:34:36.688Z,17.03
2023-04-26T05:37:03.626Z,17.73
2023-04-26T05:39:31.950Z,16.80
2023-04-26T05:41:58.816Z,18.90
2023-04-26T05:44:25.714Z,18.13
2023-04-26T05:46:52.532Z,16.57
2023-04-26T05:49:19.315Z,18.60
2023-04-26T05:51:46.094Z,16.97
2023-04-26T05:54:12.868Z,17.20
2023-04-26T05:56:39.772Z,16.50
2023-04-26T05:59:06.728Z,18.80
2023-04-26T06:01:33.523Z,19.17
2023-04-26T06:04:01.590Z,17.83
2023-04-26T06:06:28.980Z,17.17
2023-04-26T06:08:55.866Z,16.40
2023-04-26T06:11:22.693Z,17.03
2023-04-26T06:13:49.455Z,17.23
2023-04-26T06:16:16.779Z,17.53
2023-04-26T06:18:43.921Z,17.40
2023-04-26T06:21:10.715Z,15.63
2023-04-26T06:23:37.439Z,16.67
2023-04-26T06:26:04.288Z,16.90
2023-04-26T06:28:31.012Z,16.77
2023-04-26T06:30:57.856Z,18.40
2023-04-26T06:33:24.700Z,17.07
2023-04-26T06:35:52.440Z,17.60
2023-04-26T06:38:19.261Z,17.07
2023-04-26T06:40:46.684Z,18.30
2023-04-26T06:43:13.461Z,15.30
2023-04-26T06:45:41.482Z,16.10
2023-04-26T06:48:09.671Z,14.57
2023-04-26T06:50:40.118Z,13.23
2023-04-26T06:53:07.413Z,12.97
2023-04-26T06:55:35.101Z,12.40
2023-04-26T06:58:01.934Z,12.97
2023-04-26T07:00:30.046Z,11.87
2023-04-26T07:02:57.333Z,11.27
2023-04-26T07:05:24.256Z,11.90
2023-04-26T07:07:51.087Z,10.93
2023-04-26T07:10:18.036Z,9.60
2023-04-26T07:12:45.260Z,9.13
2023-04-26T07:15:12.360Z,6.37
2023-04-26T07:17:39.261Z,4.97
2023-04-26T07:20:07.104Z,6.90
2023-04-26T07:22:34.001Z,8.13
2023-04-26T07:25:00.920Z,10.40
2023-04-26T07:27:27.637Z,8.57
2023-04-26T07:29:56.047Z,8.40
2023-04-26T07:32:23.222Z,9.50
2023-04-26T07:34:50.308Z,8.10
2023-04-26T07:37:17.106Z,9.47
2023-04-26T07:39:43.821Z,8.07
2023-04-26T07:42:10.686Z,9.23
2023-04-26T07:44:37.451Z,7.80
2023-04-26T07:47:04.184Z,7.40
2023-04-26T07:49:31.039Z,7.27
2023-04-26T07:52:01.954Z,6.97
2023-04-26T07:54:28.879Z,6.87
2023-04-26T07:56:55.850Z,6.83
2023-04-26T07:59:24.115Z,7.37
2023-04-26T08:01:51.345Z,6.50
2023-04-26T08:04:30.036Z,9.13
2023-04-26T08:06:56.996Z,6.77
2023-04-26T08:09:23.931Z,7.63
2023-04-26T08:11:50.794Z,8.03
2023-04-26T08:14:17.649Z,8.10
2023-04-26T08:16:44.558Z,8.60
2023-04-26T08:19:11.409Z,8.63
2023-04-26T08:21:38.251Z,8.60
2023-04-26T08:24:05.524Z,8.20
2023-04-26T08:26:32.230Z,8.60
2023-04-26T08:28:58.916Z,9.30
2023-04-26T08:31:27.204Z,7.57
2023-04-26T08:33:54.376Z,6.60
2023-04-26T08:36:21.395Z,7.27
2023-04-26T08:38:48.183Z,8.20
2023-04-26T08:41:21.538Z,7.37
2023-04-26T08:43:49.747Z,8.43
2023-04-26T08:46:19.644Z,7.83
2023-04-26T08:48:54.082Z,7.07
2023-04-26T08:51:22.420Z,7.97
2023-04-26T08:53:53.227Z,7.50
2023-04-26T08:56:23.259Z,7.60
2023-04-26T08:58:50.826Z,8.20
2023-04-26T09:01:18.454Z,7.50
2023-04-26T09:03:45.721Z,8.77
2023-04-26T09:06:13.284Z,8.87
2023-04-26T09:08:41.859Z,6.67
2023-04-26T09:11:08.622Z,8.47
2023-04-26T09:13:35.422Z,7.20
2023-04-26T09:16:04.815Z,7.27
2023-04-26T09:18:33.905Z,6.50
2023-04-26T09:21:08.792Z,7.27
2023-04-26T09:23:35.792Z,8.10
2023-04-26T09:26:22.440Z,8.00
2023-04-26T09:28:50.729Z,7.13
2023-04-26T09:31:50.263Z,7.37
2023-04-26T09:34:17.297Z,7.83
2023-04-26T09:36:57.962Z,6.77
2023-04-26T09:39:37.950Z,7.00
2023-04-26T09:42:05.346Z,8.97
2023-04-26T09:44:32.666Z,7.53
2023-04-26T09:47:07.058Z,7.97
2023-04-26T09:49:44.580Z,6.53
2023-04-26T09:52:11.410Z,5.47
2023-04-26T09:54:52.199Z,8.27
2023-04-26T09:57:22.076Z,7.67
2023-04-26T09:59:53.563Z,5.97
2023-04-26T10:02:27.334Z,7.60
2023-04-26T10:04:56.614Z,7.10
2023-04-26T10:07:25.824Z,8.03
2023-04-26T10:09:55.559Z,5.40
2023-04-26T10:12:22.700Z,7.43
2023-04-26T10:14:49.444Z,8.27
2023-04-26T10:17:18.752Z,7.00
2023-04-26T10:19:48.421Z,6.87
2023-04-26T10:22:26.952Z,8.30
2023-04-26T10:24:54.815Z,6.87
2023-04-26T10:27:43.389Z,7.07
2023-04-26T10:30:18.240Z,4.93
2023-04-26T10:32:56.981Z,5.07
2023-04-26T10:35:24.741Z,4.00
2023-04-26T10:38:00.548Z,5.60
2023-04-26T10:40:32.145Z,5.70
2023-04-26T10:43:19.759Z,5.33
2023-04-26T10:45:47.855Z,5.47
2023-04-26T10:48:18.849Z,5.90
2023-04-26T10:51:13.052Z,5.30
2023-04-26T10:53:46.117Z,6.90
2023-04-26T10:56:33.659Z,5.87
2023-04-26T10:59:33.367Z,5.17
2023-04-26T11:02:01.593Z,5.67
2023-04-26T11:04:51.628Z,5.70
2023-04-26T11:07:37.683Z,7.00
2023-04-26T11:10:10.462Z,6.27
2023-04-26T11:12:37.351Z,7.70
2023-04-26T11:15:04.527Z,6.70
2023-04-26T11:17:37.864Z,6.10
2023-04-26T11:20:16.321Z,6.53
2023-04-26T11:22:43.038Z,6.87
2023-04-26T11:25:12.123Z,4.57
2023-04-26T11:27:38.902Z,6.80
2023-04-26T11:30:06.377Z,7.20
2023-04-26T11:32:33.746Z,6.93
2023-04-26T11:35:01.249Z,8.03
2023-04-26T11:37:28.075Z,5.80
2023-04-26T11:39:57.078Z,4.43
2023-04-26T11:42:26.932Z,5.00
2023-04-26T11:44:54.221Z,5.20
2023-04-26T11:47:21.831Z,7.60
2023-04-26T11:49:48.702Z,4.33
2023-04-26T11:52:16.472Z,4.67
2023-04-26T11:54:44.475Z,5.03
2023-04-26T11:57:17.222Z,8.07
2023-04-26T11:59:45.109Z,4.20
2023-04-26T12:02:12.498Z,5.60
2023-04-26T12:04:40.925Z,6.33
2023-04-26T12:07:08.458Z,6.67
2023-04-26T12:09:36.638Z,4.40
2023-04-26T12:12:06.428Z,6.27
2023-04-26T12:14:37.473Z,6.10
2023-04-26T12:17:06.346Z,5.53
2023-04-26T12:19:40.114Z,4.87
2023-04-26T12:22:07.722Z,6.03
2023-04-26T12:24:37.046Z,7.13
2023-04-26T12:27:06.070Z,5.37
2023-04-26T12:29:33.773Z,5.43
2023-04-26T12:32:01.437Z,5.10
2023-04-26T12:34:28.362Z,5.30
2023-04-26T12:36:55.677Z,5.60
2023-04-26T12:39:22.553Z,3.97
2023-04-26T12:41:49.607Z,4.83
2023-04-26T12:44:16.740Z,6.03
2023-04-26T12:46:44.218Z,5.50
2023-04-26T12:49:11.638Z,5.07
2023-04-26T12:51:38.748Z,5.03
2023-04-26T12:54:05.571Z,4.43
2023-04-26T12:56:33.878Z,5.33
2023-04-26T12:59:00.907Z,4.50
2023-04-26T13:01:27.664Z,5.30
2023-04-26T13:03:56.651Z,5.33
2023-04-26T13:06:24.109Z,6.40
2023-04-26T13:08:50.852Z,6.07
2023-04-26T13:11:18.241Z,5.23
2023-04-26T13:13:45.281Z,4.83
2023-04-26T13:16:12.920Z,7.20
2023-04-26T13:18:41.009Z,8.00
2023-04-26T13:21:08.180Z,4.90
2023-04-26T13:23:34.892Z,5.73
2023-04-26T13:26:01.671Z,4.10
2023-04-26T13:28:28.507Z,6.07
2023-04-26T13:30:56.053Z,7.67
2023-04-26T13:33:23.298Z,8.27
2023-04-26T13:35:50.588Z,6.03
2023-04-26T13:38:17.778Z,5.03
2023-04-26T13:40:45.049Z,5.97
2023-04-26T13:43:11.829Z,5.40
2023-04-26T13:45:38.831Z,5.30
2023-04-26T13:48:05.900Z,5.40
2023-04-26T13:50:32.839Z,5.27
2023-04-26T13:53:00.092Z,5.43
2023-04-26T13:55:27.056Z,4.20
2023-04-26T13:57:53.908Z,6.03
2023-04-26T14:00:21.125Z,6.50
2023-04-26T14:02:48.557Z,6.27
2023-04-26T14:05:16.600Z,5.27
2023-04-26T14:07:43.538Z,6.77
2023-04-26T14:10:10.668Z,4.70
2023-04-26T14:12:37.591Z,6.40
2023-04-26T14:15:06.179Z,7.17
2023-04-26T14:17:33.742Z,5.20
2023-04-26T14:20:00.891Z,5.30
2023-04-26T14:22:28.061Z,7.03
2023-04-26T14:24:54.924Z,5.07
2023-04-26T14:27:21.792Z,5.50
2023-04-26T14:29:48.545Z,5.70
2023-04-26T14:32:15.593Z,7.27
2023-04-26T14:34:43.234Z,6.30
2023-04-26T14:37:10.429Z,4.23
2023-04-26T14:39:37.414Z,7.80
2023-04-26T14:42:04.669Z,5.77
2023-04-26T14:44:31.448Z,5.47
2023-04-26T14:46:58.318Z,4.93
2023-04-26T14:49:25.145Z,6.63
2023-04-26T14:51:53.715Z,5.13
2023-04-26T14:54:21.265Z,6.40
2023-04-26T14:56:48.890Z,4.63
2023-04-26T14:59:16.088Z,4.77
2023-04-26T15:01:43.120Z,6.60
2023-04-26T15:04:10.194Z,4.60
2023-04-26T15:06:37.262Z,4.70
2023-04-26T15:09:04.680Z,4.80
2023-04-26T15:11:31.509Z,8.60
2023-04-26T15:13:58.216Z,5.80
2023-04-26T15:16:25.051Z,4.80
2023-04-26T15:18:51.962Z,4.97
2023-04-26T15:21:22.031Z,6.03
2023-04-26T15:23:48.779Z,4.40
2023-04-26T15:26:15.471Z,5.20
2023-04-26T15:28:42.224Z,4.00
2023-04-26T15:31:09.935Z,4.47
2023-04-26T15:33:37.150Z,4.33
2023-04-26T15:36:04.245Z,5.27
2023-04-26T15:38:31.018Z,5.20
2023-04-26T15:40:57.723Z,4.97
2023-04-26T15:43:24.475Z,4.17
2023-04-26T15:45:51.486Z,5.10
2023-04-26T15:48:18.360Z,4.33
2023-04-26T15:50:46.203Z,5.60
2023-04-26T15:53:12.912Z,4.50
2023-04-26T15:55:39.631Z,4.70
2023-04-26T15:58:06.524Z,4.20
2023-04-26T16:00:33.964Z,3.37
2023-04-26T16:03:02.167Z,6.20
2023-04-26T16:05:29.154Z,4.50
2023-04-26T16:07:56.324Z,5.20
2023-04-26T16:10:23.910Z,4.80
2023-04-26T16:12:50.919Z,4.90
2023-04-26T16:15:17.826Z,4.37
2023-04-26T16:17:44.814Z,3.77
2023-04-26T16:20:11.864Z,5.97
2023-04-26T16:22:38.637Z,4.30
2023-04-26T16:25:07.083Z,7.40
2023-04-26T16:27:34.409Z,7.17
2023-04-26T16:30:01.967Z,5.17
2023-04-26T16:32:30.626Z,5.37
2023-04-26T16:34:57.562Z,9.03
2023-04-26T16:37:24.386Z,5.47
2023-04-26T16:39:55.695Z,4.10
2023-04-26T16:42:22.693Z,4.23
2023-04-26T16:44:49.678Z,3.97
2023-04-26T16:47:16.398Z,4.70
2023-04-26T16:49:43.177Z,4.53
2023-04-26T16:52:09.960Z,4.70
2023-04-26T16:54:36.857Z,5.03
2023-04-26T16:57:04.521Z,4.00
2023-04-26T16:59:31.427Z,4.90
2023-04-26T17:01:58.335Z,5.17
2023-04-26T17:04:26.421Z,3.53
2023-04-26T17:06:54.599Z,3.70
2023-04-26T17:09:21.498Z,4.93
2023-04-26T17:11:49.862Z,4.60
2023-04-26T17:14:16.761Z,4.90
2023-04-26T17:16:43.673Z,3.50
2023-04-26T17:19:10.834Z,4.70
2023-04-26T17:21:37.700Z,4.03
2023-04-26T17:24:04.666Z,4.40
2023-04-26T17:26:31.526Z,4.07
2023-04-26T17:28:58.338Z,6.60
2023-04-26T17:31:25.152Z,7.53
2023-04-26T17:33:52.189Z,5.43
2023-04-26T17:36:19.485Z,6.77
2023-04-26T17:38:46.301Z,4.30
2023-04-26T17:41:21.783Z,4.53
2023-04-26T17:43:48.535Z,4.03
2023-04-26T17:46:15.370Z,4.73
2023-04-26T17:48:42.182Z,4.17
2023-04-26T17:51:09.068Z,4.73
2023-04-26T17:53:36.036Z,5.00
2023-04-26T17:56:07.144Z,3.80
2023-04-26T17:58:34.274Z,3.97
2023-04-26T18:01:01.513Z,3.37
2023-04-26T18:03:31.573Z,4.27
2023-04-26T18:05:58.649Z,5.67
2023-04-26T18:08:25.869Z,5.80
2023-04-26T18:10:54.044Z,7.00
2023-04-26T18:13:21.559Z,3.90
2023-04-26T18:15:48.597Z,5.13
2023-04-26T18:18:22.607Z,3.20
2023-04-26T18:20:49.468Z,5.77
2023-04-26T18:23:16.409Z,4.10
2023-04-26T18:25:43.379Z,4.77
2023-04-26T18:28:10.619Z,3.90
2023-04-26T18:30:37.398Z,5.00
2023-04-26T18:33:05.142Z,5.97
2023-04-26T18:35:32.231Z,7.50
2023-04-26T18:37:59.185Z,6.33
2023-04-26T18:40:27.208Z,4.33
2023-04-26T18:42:54.019Z,5.80
2023-04-26T18:45:20.950Z,6.40
2023-04-26T18:47:47.697Z,4.57
2023-04-26T18:50:14.509Z,6.40
2023-04-26T18:52:41.347Z,9.50
2023-04-26T18:55:11.196Z,4.80
2023-04-26T18:57:38.016Z,7.03
2023-04-26T19:00:06.484Z,6.47
2023-04-26T19:02:34.306Z,6.43
2023-04-26T19:05:01.582Z,4.80
2023-04-26T19:07:28.621Z,4.90
2023-04-26T19:10:00.811Z,4.30
2023-04-26T19:12:28.146Z,5.33
2023-04-26T19:14:55.081Z,5.63
2023-04-26T19:17:22.283Z,4.60
2023-04-26T19:19:52.676Z,6.03
2023-04-26T19:22:33.192Z,6.60
2023-04-26T19:24:59.964Z,6.60
2023-04-26T19:27:27.236Z,3.57
2023-04-26T19:29:54.057Z,6.40
2023-04-26T19:32:22.998Z,3.97
2023-04-26T19:34:52.545Z,7.50
2023-04-26T19:37:19.438Z,5.50
2023-04-26T19:39:46.927Z,6.57
2023-04-26T19:42:13.811Z,4.13
2023-04-26T19:44:41.124Z,9.63
2023-04-26T19:47:08.994Z,6.07
2023-04-26T19:49:36.051Z,5.40
2023-04-26T19:52:02.996Z,6.07
2023-04-26T19:54:47.547Z,5.07
2023-04-26T19:57:23.402Z,4.60
2023-04-26T19:59:50.237Z,4.10
2023-04-26T20:02:17.281Z,6.33
2023-04-26T20:04:44.714Z,6.30
2023-04-26T20:07:20.915Z,5.30
2023-04-26T20:09:47.724Z,6.83
2023-04-26T20:12:14.656Z,15.80
2023-04-26T20:14:41.825Z,7.60
2023-04-26T20:17:08.752Z,17.57
2023-04-26T20:19:35.795Z,16.93
2023-04-26T20:22:02.619Z,16.50
2023-04-26T20:24:29.914Z,9.30
2023-04-26T20:26:57.928Z,9.43
2023-04-26T20:29:26.105Z,9.23
2023-04-26T20:31:52.985Z,10.63
2023-04-26T20:34:20.052Z,7.97
2023-04-26T20:36:47.501Z,25.77
2023-04-26T20:39:14.664Z,15.10
2023-04-26T20:41:41.619Z,17.53
2023-04-26T20:44:08.516Z,12.53
2023-04-26T20:46:36.029Z,25.97
2023-04-26T20:49:03.057Z,46.97
2023-04-26T20:51:29.885Z,12.60
2023-04-26T20:53:56.700Z,18.50
2023-04-26T20:56:23.531Z,8.33
2023-04-26T20:58:50.388Z,19.53
2023-04-26T21:01:17.219Z,27.30
2023-04-26T21:03:44.243Z,13.73
2023-04-26T21:06:11.302Z,9.80
2023-04-26T21:08:38.129Z,7.13
2023-04-26T21:11:05.036Z,12.43
2023-04-26T21:13:32.119Z,8.10
2023-04-26T21:15:59.000Z,6.50
2023-04-26T21:18:25.978Z,6.27
2023-04-26T21:20:52.816Z,6.83
2023-04-26T21:23:19.793Z,6.30
2023-04-26T21:25:47.239Z,7.30
2023-04-26T21:28:14.828Z,9.23
2023-04-26T21:30:41.680Z,7.03
2023-04-26T21:33:08.698Z,5.97
2023-04-26T21:35:35.653Z,7.23
2023-04-26T21:38:02.381Z,6.87
2023-04-26T21:40:29.171Z,6.40
2023-04-26T21:43:04.879Z,6.07
2023-04-26T21:45:32.465Z,6.70
2023-04-26T21:48:02.119Z,6.43
2023-04-26T21:50:29.026Z,6.07
2023-04-26T21:52:55.896Z,7.23
2023-04-26T21:55:25.774Z,8.90
2023-04-26T21:57:52.787Z,6.20
2023-04-26T22:00:19.835Z,7.17
2023-04-26T22:02:46.834Z,8.50
2023-04-26T22:05:13.792Z,10.80
2023-04-26T22:07:41.044Z,6.67
2023-04-26T22:10:08.344Z,6.93
2023-04-26T22:12:35.158Z,6.50
2023-04-26T22:15:01.952Z,6.83
2023-04-26T22:17:28.783Z,6.37
2023-04-26T22:19:55.627Z,6.07
2023-04-26T22:22:22.500Z,7.37
2023-04-26T22:24:51.426Z,8.50
2023-04-26T22:27:18.288Z,8.17
2023-04-26T22:29:45.022Z,6.83
2023-04-26T22:32:11.859Z,6.77
2023-04-26T22:34:40.485Z,7.10
2023-04-26T22:37:20.266Z,6.00
2023-04-26T22:39:47.914Z,7.37
2023-04-26T22:42:14.856Z,9.93
2023-04-26T22:44:42.017Z,7.50
2023-04-26T22:47:08.780Z,7.17
2023-04-26T22:49:35.657Z,7.07
2023-04-26T22:52:11.646Z,8.43
2023-04-26T22:54:41.171Z,8.97
2023-04-26T22:57:08.284Z,8.50
2023-04-26T22:59:35.097Z,9.50
2023-04-26T23:02:02.243Z,11.97
2023-04-26T23:04:28.934Z,12.10
2023-04-26T23:06:56.254Z,14.70
2023-04-26T23:09:23.079Z,11.07
2023-04-26T23:11:49.903Z,12.80
2023-04-26T23:14:17.064Z,10.70
2023-04-26T23:16:43.932Z,10.70
2023-04-26T23:19:11.313Z,11.20
2023-04-26T23:21:38.228Z,10.60
2023-04-26T23:24:05.358Z,10.40
2023-04-26T23:26:32.588Z,11.90
2023-04-26T23:28:59.323Z,13.33
2023-04-26T23:31:26.214Z,12.40
2023-04-26T23:33:53.008Z,11.40
2023-04-26T23:36:19.739Z,11.70
2023-04-26T23:38:46.509Z,8.50
2023-04-26T23:41:13.300Z,8.20
2023-04-26T23:43:40.161Z,8.43
2023-04-26T23:46:07.095Z,10.50
2023-04-26T23:48:34.079Z,9.03
2023-04-26T23:51:01.050Z,7.90
2023-04-26T23:53:27.809Z,6.93
2023-04-26T23:55:54.616Z,8.70
2023-04-26T23:58:21.929Z,7.60
